Saga Sapphire — 9HOF8 — position and weather

sailwx.info

Track history (hours):
 
Tides and Currents Weather Stations Pressure Air Temp Water Temp Dewpoint Dewpoint Depression Visibility Wind Speed Wind Dir Waves Ship Positions

Saga Sapphire

Last reported at 2015-Feb-25 03:00 UTC. Time now 2015-Feb-28 05:17 UTC.
Position N 29°24' W 016°54'.

Length 200 m; draft 8.6 m.

Type: Passenger vessel. MMSI: 256208000.

Wind from 040 at 40 knots

Waves 4.5 meters (15 feet), 10 second period

Barometer 1028.0 mb
Air temperature 16.0 ° C
Visibility: greater than 5.4 NM
Dewpoint 10.3 ° C

Date/timePositionNaut miles runAvg speedWind from/ knotsBaromVisibWave heightAir tempDewpointWater temp
2015-Feb-25 03:00N 29°24' W 016°54'6813.5 040 / 401028.0 5.4 4.516.010.3
2015-Feb-24 22:00N 30°00' W 018°00'8313.8 060 / 451030.0 5.4 4.016.510.7
2015-Feb-24 16:00N 31°00' W 019°06'7014.0 040 / 331029.410.8 3.516.513.5
2015-Feb-24 11:00N 31°48' W 020°06'10713.3 060 / 401032.7 5.4 4.016.114.4
2015-Feb-24 03:00N 33°12' W 021°24'20212.7 040 / 281032.510.8 2.516.013.3
2015-Feb-23 11:04N 35°55' W 023°49'1015.7
2015-Feb-23 10:25N 36°03' W 023°57'1315.5
2015-Feb-23 09:33N 36°14' W 024°06'1515.2
2015-Feb-23 08:33N 36°26' W 024°18'1111.4
2015-Feb-23 07:33N 36°35' W 024°27'1111.4
2015-Feb-23 06:34N 36°44' W 024°35'1211.6
2015-Feb-23 05:33N 36°54' W 024°43'1211.6
2015-Feb-23 04:33N 37°03' W 024°52'1111.3
2015-Feb-23 03:33N 37°12' W 025°00'1111.4
2015-Feb-23 02:33N 37°20' W 025°10'1211.7
2015-Feb-23 01:33N 37°29' W 025°20'1211.6
2015-Feb-23 00:33N 37°37' W 025°30'1010.2
2015-Feb-22 23:33N 37°44' W 025°40'0 0.0
2015-Feb-22 22:32N 37°44' W 025°40'0 0.0
2015-Feb-22 21:32N 37°44' W 025°40'0 0.0
2015-Feb-22 20:32N 37°44' W 025°40'0 0.0
2015-Feb-22 19:32N 37°44' W 025°40'0 0.0
2015-Feb-22 18:32N 37°44' W 025°40'0 0.0
2015-Feb-22 17:32N 37°44' W 025°40'0 0.0
2015-Feb-22 16:32N 37°44' W 025°40'0 0.0
2015-Feb-22 15:32N 37°44' W 025°40'0 0.0
2015-Feb-22 14:32N 37°44' W 025°40'0 0.0
2015-Feb-22 13:32N 37°44' W 025°40'0 0.0
2015-Feb-22 12:32N 37°44' W 025°40'0 0.0
2015-Feb-22 11:32N 37°44' W 025°40'0 0.0
2015-Feb-22 10:32N 37°44' W 025°40'0 0.0
2015-Feb-22 09:32N 37°44' W 025°40'0 0.0
2015-Feb-22 08:32N 37°44' W 025°40'3 3.5
2015-Feb-22 07:34N 37°42' W 025°43'1111.4
2015-Feb-22 06:33N 37°45' W 025°57'1313.0
2015-Feb-22 05:34N 37°49' W 026°13'1313.2
2015-Feb-22 04:34N 37°53' W 026°29'1212.4
2015-Feb-22 03:33N 37°57' W 026°44'1424.5
2015-Feb-22 03:00N 37°48' W 026°30'2762.1 350 / 121035.310.8 2.015.011.3
2015-Feb-22 02:33N 38°01' W 027°00'1413.6
2015-Feb-22 01:34N 38°05' W 027°17'1413.7
2015-Feb-22 00:33N 38°09' W 027°33'1313.4
2015-Feb-21 23:33N 38°13' W 027°49'4 6.9
2015-Feb-21 23:00N 38°12' W 027°54'1124.6 020 / 161036.510.8 1.015.711.9
2015-Feb-21 22:33N 38°17' W 028°06'1313.4
2015-Feb-21 21:33N 38°21' W 028°22'1211.9
2015-Feb-21 20:34N 38°29' W 028°34'4 3.8
2015-Feb-21 19:28N 38°32' W 028°37'0 0.0
2015-Feb-21 18:28N 38°32' W 028°37'0 0.0
2015-Feb-21 17:31N 38°32' W 028°37'0 0.0
2015-Feb-21 16:31N 38°32' W 028°37'0 0.0
2015-Feb-21 15:31N 38°32' W 028°37'0 0.0
2015-Feb-21 14:31N 38°32' W 028°37'0 0.0
2015-Feb-21 13:31N 38°32' W 028°37'0 0.0
2015-Feb-21 12:28N 38°32' W 028°37'0 0.0
2015-Feb-21 11:28N 38°32' W 028°37'0 0.0
2015-Feb-21 10:31N 38°32' W 028°37'0 0.0
2015-Feb-21 09:31N 38°32' W 028°37'0 0.0
2015-Feb-21 08:33N 38°32' W 028°37'4 4.4
2015-Feb-21 07:33N 38°28' W 028°36'1010.4
2015-Feb-21 06:33N 38°21' W 028°26'1212.1
2015-Feb-21 05:33N 38°19' W 028°10'1211.7
2015-Feb-21 04:33N 38°21' W 027°56'1111.5
2015-Feb-21 03:34N 38°25' W 027°42'1111.1
2015-Feb-21 02:33N 38°28' W 027°28'1211.9
2015-Feb-21 01:33N 38°32' W 027°14'1111.0
2015-Feb-21 00:32N 38°37' W 027°01'6 5.6
2015-Feb-20 23:30N 38°43' W 027°03'0 0.0
2015-Feb-20 22:32N 38°43' W 027°03'0 0.0
2015-Feb-20 21:32N 38°43' W 027°03'0 0.0
2015-Feb-20 20:32N 38°43' W 027°03'0 0.0
2015-Feb-20 19:17N 38°43' W 027°03'0 0.0
2015-Feb-20 18:26N 38°43' W 027°03'0 0.0
2015-Feb-20 17:32N 38°43' W 027°03'0 0.0
2015-Feb-20 16:32N 38°43' W 027°03'0 0.0
2015-Feb-20 15:32N 38°43' W 027°03'0 0.0
2015-Feb-20 13:32N 38°43' W 027°03'0 0.0
2015-Feb-20 11:14N 38°43' W 027°03'0 0.0
2015-Feb-20 10:23N 38°43' W 027°03'0 0.0
2015-Feb-20 09:26N 38°43' W 027°03'0 0.1
2015-Feb-20 08:34N 38°43' W 027°03'6 5.5
2015-Feb-20 07:32N 38°46' W 026°57'1211.9
2015-Feb-20 06:33N 38°52' W 026°44'1312.9
2015-Feb-20 05:32N 38°60' W 026°31'38614.5
2015-Feb-19 03:00N 42°30' W 019°24'17015.4 240 / 111032.1 5.4 4.513.012.6
2015-Feb-18 16:00N 44°06' W 016°12'11516.4 180 / 191034.810.8 3.012.0 7.9
2015-Feb-18 09:00N 45°12' W 014°00'9014.9 160 / 301038.8 5.4 4.010.0 3.6
2015-Feb-18 03:00N 46°00' W 012°12'8216.4 160 / 201040.310.8 3.5 8.5 5.6
2015-Feb-17 22:00N 46°48' W 010°36'18115.1 200 / 131043.6 5.4 4.510.0 2.2
2015-Feb-17 10:00N 48°30' W 006°54'16715.7 300 / 121041.9 5.4 3.0 8.0 2.8
2015-Feb-16 23:19N 50°04' W 003°22'4616.5
2015-Feb-16 20:33N 50°25' W 002°18'1514.6
2015-Feb-16 19:33N 50°32' W 001°58'1414.2
2015-Feb-16 18:34N 50°38' W 001°38'1212.2
2015-Feb-16 17:33N 50°45' W 001°22'7 6.9
2015-Feb-16 16:33N 50°52' W 001°23'2 1.6
2015-Feb-16 15:33N 50°54' W 001°24'0 0.0
2015-Feb-16 14:33N 50°54' W 001°24'0 0.0
2015-Feb-16 13:33N 50°54' W 001°24'0 0.0
2015-Feb-16 12:33N 50°54' W 001°24'0 0.0
2015-Feb-16 11:33N 50°54' W 001°24'0 0.0
2015-Feb-16 10:33N 50°54' W 001°24'0 0.0
2015-Feb-16 09:33N 50°54' W 001°24'0 0.0
2015-Feb-16 08:33N 50°54' W 001°24'0 0.0
2015-Feb-16 07:33N 50°54' W 001°24'2 1.9
2015-Feb-16 06:33N 50°52' W 001°22'9 8.9
2015-Feb-16 05:33N 50°46' W 001°12'1110.9
2015-Feb-16 04:33N 50°40' W 000°58'1211.3
2015-Feb-16 03:32N 50°28' W 001°03'1312.3
2015-Feb-16 02:27N 50°23' W 001°22'714.2
2015-Feb-16 02:00N 50°24' W 001°12'14313.0 140 / 101016.610.8 1.5 8.0 5.8
2015-Feb-15 15:00N 49°12' W 004°24'   050 / 71014.810.8 2.010.0 3.1
Track history (hours):
 
Tides and Currents Weather Stations Pressure Air Temp Water Temp Dewpoint Dewpoint Depression Visibility Wind Speed Wind Dir Waves Ship Positions

Saga Sapphire

Last reported at 2015-Feb-25 03:00 UTC. Time now 2015-Feb-28 05:17 UTC.
Position N 29°24' W 016°54'.

Length 200 m; draft 8.6 m.

Type: Passenger vessel. MMSI: 256208000.

Wind from 040 at 40 knots

Waves 4.5 meters (15 feet), 10 second period

Barometer 1028.0 mb
Air temperature 16.0 ° C
Visibility: greater than 5.4 NM
Dewpoint 10.3 ° C

Date/timePositionNaut miles runAvg speedWind from/ knotsBaromVisibWave heightAir tempDewpointWater temp
2015-Feb-25 03:00N 29°24' W 016°54'6813.5 040 / 401028.0 5.4 4.516.010.3
2015-Feb-24 22:00N 30°00' W 018°00'8313.8 060 / 451030.0 5.4 4.016.510.7
2015-Feb-24 16:00N 31°00' W 019°06'7014.0 040 / 331029.410.8 3.516.513.5
2015-Feb-24 11:00N 31°48' W 020°06'10713.3 060 / 401032.7 5.4 4.016.114.4
2015-Feb-24 03:00N 33°12' W 021°24'20212.7 040 / 281032.510.8 2.516.013.3
2015-Feb-23 11:04N 35°55' W 023°49'1015.7
2015-Feb-23 10:25N 36°03' W 023°57'1315.5
2015-Feb-23 09:33N 36°14' W 024°06'1515.2
2015-Feb-23 08:33N 36°26' W 024°18'1111.4
2015-Feb-23 07:33N 36°35' W 024°27'1111.4
2015-Feb-23 06:34N 36°44' W 024°35'1211.6
2015-Feb-23 05:33N 36°54' W 024°43'1211.6
2015-Feb-23 04:33N 37°03' W 024°52'1111.3
2015-Feb-23 03:33N 37°12' W 025°00'1111.4
2015-Feb-23 02:33N 37°20' W 025°10'1211.7
2015-Feb-23 01:33N 37°29' W 025°20'1211.6
2015-Feb-23 00:33N 37°37' W 025°30'1010.2
2015-Feb-22 23:33N 37°44' W 025°40'0 0.0
2015-Feb-22 22:32N 37°44' W 025°40'0 0.0
2015-Feb-22 21:32N 37°44' W 025°40'0 0.0
2015-Feb-22 20:32N 37°44' W 025°40'0 0.0
2015-Feb-22 19:32N 37°44' W 025°40'0 0.0
2015-Feb-22 18:32N 37°44' W 025°40'0 0.0
2015-Feb-22 17:32N 37°44' W 025°40'0 0.0
2015-Feb-22 16:32N 37°44' W 025°40'0 0.0
2015-Feb-22 15:32N 37°44' W 025°40'0 0.0
2015-Feb-22 14:32N 37°44' W 025°40'0 0.0
2015-Feb-22 13:32N 37°44' W 025°40'0 0.0
2015-Feb-22 12:32N 37°44' W 025°40'0 0.0
2015-Feb-22 11:32N 37°44' W 025°40'0 0.0
2015-Feb-22 10:32N 37°44' W 025°40'0 0.0
2015-Feb-22 09:32N 37°44' W 025°40'0 0.0
2015-Feb-22 08:32N 37°44' W 025°40'3 3.5
2015-Feb-22 07:34N 37°42' W 025°43'1111.4
2015-Feb-22 06:33N 37°45' W 025°57'1313.0
2015-Feb-22 05:34N 37°49' W 026°13'1313.2
2015-Feb-22 04:34N 37°53' W 026°29'1212.4
2015-Feb-22 03:33N 37°57' W 026°44'1424.5
2015-Feb-22 03:00N 37°48' W 026°30'2762.1 350 / 121035.310.8 2.015.011.3
2015-Feb-22 02:33N 38°01' W 027°00'1413.6
2015-Feb-22 01:34N 38°05' W 027°17'1413.7
2015-Feb-22 00:33N 38°09' W 027°33'1313.4
2015-Feb-21 23:33N 38°13' W 027°49'4 6.9
2015-Feb-21 23:00N 38°12' W 027°54'1124.6 020 / 161036.510.8 1.015.711.9
2015-Feb-21 22:33N 38°17' W 028°06'1313.4
2015-Feb-21 21:33N 38°21' W 028°22'1211.9
2015-Feb-21 20:34N 38°29' W 028°34'4 3.8
2015-Feb-21 19:28N 38°32' W 028°37'0 0.0
2015-Feb-21 18:28N 38°32' W 028°37'0 0.0
2015-Feb-21 17:31N 38°32' W 028°37'0 0.0
2015-Feb-21 16:31N 38°32' W 028°37'0 0.0
2015-Feb-21 15:31N 38°32' W 028°37'0 0.0
2015-Feb-21 14:31N 38°32' W 028°37'0 0.0
2015-Feb-21 13:31N 38°32' W 028°37'0 0.0
2015-Feb-21 12:28N 38°32' W 028°37'0 0.0
2015-Feb-21 11:28N 38°32' W 028°37'0 0.0
2015-Feb-21 10:31N 38°32' W 028°37'0 0.0
2015-Feb-21 09:31N 38°32' W 028°37'0 0.0
2015-Feb-21 08:33N 38°32' W 028°37'4 4.4
2015-Feb-21 07:33N 38°28' W 028°36'1010.4
2015-Feb-21 06:33N 38°21' W 028°26'1212.1
2015-Feb-21 05:33N 38°19' W 028°10'1211.7
2015-Feb-21 04:33N 38°21' W 027°56'1111.5
2015-Feb-21 03:34N 38°25' W 027°42'1111.1
2015-Feb-21 02:33N 38°28' W 027°28'1211.9
2015-Feb-21 01:33N 38°32' W 027°14'1111.0
2015-Feb-21 00:32N 38°37' W 027°01'6 5.6
2015-Feb-20 23:30N 38°43' W 027°03'0 0.0
2015-Feb-20 22:32N 38°43' W 027°03'0 0.0
2015-Feb-20 21:32N 38°43' W 027°03'0 0.0
2015-Feb-20 20:32N 38°43' W 027°03'0 0.0
2015-Feb-20 19:17N 38°43' W 027°03'0 0.0
2015-Feb-20 18:26N 38°43' W 027°03'0 0.0
2015-Feb-20 17:32N 38°43' W 027°03'0 0.0
2015-Feb-20 16:32N 38°43' W 027°03'0 0.0
2015-Feb-20 15:32N 38°43' W 027°03'0 0.0
2015-Feb-20 13:32N 38°43' W 027°03'0 0.0
2015-Feb-20 11:14N 38°43' W 027°03'0 0.0
2015-Feb-20 10:23N 38°43' W 027°03'0 0.0
2015-Feb-20 09:26N 38°43' W 027°03'0 0.1
2015-Feb-20 08:34N 38°43' W 027°03'6 5.5
2015-Feb-20 07:32N 38°46' W 026°57'1211.9
2015-Feb-20 06:33N 38°52' W 026°44'1312.9
2015-Feb-20 05:32N 38°60' W 026°31'38614.5
2015-Feb-19 03:00N 42°30' W 019°24'17015.4 240 / 111032.1 5.4 4.513.012.6
2015-Feb-18 16:00N 44°06' W 016°12'11516.4 180 / 191034.810.8 3.012.0 7.9
2015-Feb-18 09:00N 45°12' W 014°00'9014.9 160 / 301038.8 5.4 4.010.0 3.6
2015-Feb-18 03:00N 46°00' W 012°12'8216.4 160 / 201040.310.8 3.5 8.5 5.6
2015-Feb-17 22:00N 46°48' W 010°36'18115.1 200 / 131043.6 5.4 4.510.0 2.2
2015-Feb-17 10:00N 48°30' W 006°54'16715.7 300 / 121041.9 5.4 3.0 8.0 2.8
2015-Feb-16 23:19N 50°04' W 003°22'4616.5
2015-Feb-16 20:33N 50°25' W 002°18'1514.6
2015-Feb-16 19:33N 50°32' W 001°58'1414.2
2015-Feb-16 18:34N 50°38' W 001°38'1212.2
2015-Feb-16 17:33N 50°45' W 001°22'7 6.9
2015-Feb-16 16:33N 50°52' W 001°23'2 1.6
2015-Feb-16 15:33N 50°54' W 001°24'0 0.0
2015-Feb-16 14:33N 50°54' W 001°24'0 0.0
2015-Feb-16 13:33N 50°54' W 001°24'0 0.0
2015-Feb-16 12:33N 50°54' W 001°24'0 0.0
2015-Feb-16 11:33N 50°54' W 001°24'0 0.0
2015-Feb-16 10:33N 50°54' W 001°24'0 0.0
2015-Feb-16 09:33N 50°54' W 001°24'0 0.0
2015-Feb-16 08:33N 50°54' W 001°24'0 0.0
2015-Feb-16 07:33N 50°54' W 001°24'2 1.9
2015-Feb-16 06:33N 50°52' W 001°22'9 8.9
2015-Feb-16 05:33N 50°46' W 001°12'1110.9
2015-Feb-16 04:33N 50°40' W 000°58'1211.3
2015-Feb-16 03:32N 50°28' W 001°03'1312.3
2015-Feb-16 02:27N 50°23' W 001°22'714.2
2015-Feb-16 02:00N 50°24' W 001°12'14313.0 140 / 101016.610.8 1.5 8.0 5.8
2015-Feb-15 15:00N 49°12' W 004°24'   050 / 71014.810.8 2.010.0 3.1

Dump ship's entire track history